Time;durP1;ratioP1;P1;durP2;ratioP2;P2;SDS_P1;SDS_P2;PMS_P1;PMS_P2;Temp;Humidity;BMP_temperature;BMP_pressure;BME280_temperature;BME280_humidity;BME280_pressure;Samples;Min_cycle;Max_cycle;Signal;HPM_P1;HPM_P2
2021/03/08 05:12:07;;;;;;;1.10;1.10;;;3.10;99.90;;;;;;5250564;23;20278;-74
2021/03/08 05:14:34;;;;;;;1.30;1.30;;;3.20;99.90;;;;;;4993164;28;20207;-74
2021/03/08 05:17:02;;;;;;;1.40;1.40;;;3.20;99.90;;;;;;4993001;28;20203;-74
2021/03/08 05:19:30;;;;;;;1.20;1.20;;;3.30;99.90;;;;;;4989791;28;20201;-74
2021/03/08 05:21:57;;;;;;;1.47;1.47;;;3.10;99.90;;;;;;4983384;28;20644;-74
2021/03/08 05:24:25;;;;;;;1.17;1.17;;;3.10;99.90;;;;;;4982924;28;20205;-74
2021/03/08 05:26:52;;;;;;;1.30;1.30;;;3.00;99.90;;;;;;4984569;28;20200;-73
2021/03/08 05:29:21;;;;;;;1.40;1.40;;;3.10;99.90;;;;;;4982278;28;20263;-73
2021/03/08 05:31:48;;;;;;;1.30;1.30;;;3.20;99.90;;;;;;4981767;28;20266;-75
2021/03/08 05:34:19;;;;;;;1.10;1.10;;;3.30;99.90;;;;;;4979555;28;20616;-72
2021/03/08 05:36:48;;;;;;;1.20;1.20;;;3.20;99.90;;;;;;4972437;28;20608;-76
2021/03/08 05:39:17;;;;;;;1.33;1.33;;;3.40;99.90;;;;;;4978233;28;20189;-75
2021/03/08 05:42:02;;;;;;;1.30;1.30;;;3.40;99.90;;;;;;4985893;28;20227;-75
2021/03/08 05:44:32;;;;;;;1.30;1.30;;;3.50;99.90;;;;;;4989577;28;20252;-75
2021/03/08 05:47:35;;;;;;;1.53;1.53;;;3.60;99.90;;;;;;4971654;28;20208;-75
2021/03/08 05:50:25;;;;;;;1.20;1.20;;;3.50;99.90;;;;;;4968666;28;20653;-74
2021/03/08 05:53:18;;;;;;;1.30;1.30;;;3.60;99.90;;;;;;4982657;28;20254;-74
2021/03/08 05:56:08;;;;;;;1.20;1.20;;;3.50;99.90;;;;;;4982750;28;20197;-74
2021/03/08 05:58:53;;;;;;;1.23;1.23;;;3.30;99.90;;;;;;4980269;28;20665;-74
2021/03/08 06:01:42;;;;;;;1.27;1.27;;;3.30;99.90;;;;;;4981638;28;20267;-76
2021/03/08 06:04:48;;;;;;;1.00;1.00;;;3.20;99.90;;;;;;4992508;28;20204;-74
2021/03/08 06:07:50;;;;;;;1.27;1.27;;;3.40;99.90;;;;;;4972648;28;20208;-74
2021/03/08 06:10:23;;;;;;;1.33;1.33;;;3.50;99.90;;;;;;4977387;28;20196;-75
2021/03/08 06:12:54;;;;;;;1.20;1.20;;;3.50;99.90;;;;;;4971766;28;20259;-75
2021/03/08 06:15:22;;;;;;;1.30;1.30;;;3.50;99.90;;;;;;4971997;28;20630;-76
2021/03/08 06:17:51;;;;;;;1.17;1.17;;;3.40;99.90;;;;;;4972143;28;20669;-75
2021/03/08 06:20:19;;;;;;;1.37;1.37;;;3.70;99.90;;;;;;4971389;28;20204;-77
2021/03/08 06:22:47;;;;;;;1.30;1.30;;;3.60;99.90;;;;;;4977231;28;20662;-77
2021/03/08 06:25:15;;;;;;;1.40;1.40;;;3.70;99.90;;;;;;4990616;28;20200;-75
2021/03/08 06:27:42;;;;;;;1.60;1.60;;;3.60;99.90;;;;;;4991796;28;20227;-75
2021/03/08 06:30:09;;;;;;;1.10;1.10;;;3.70;99.90;;;;;;4991903;28;20204;-75
2021/03/08 06:32:36;;;;;;;1.20;1.20;;;3.60;99.90;;;;;;4991625;28;20200;-75
2021/03/08 06:35:06;;;;;;;1.20;1.20;;;3.70;99.90;;;;;;4991815;28;20247;-75
2021/03/08 06:37:34;;;;;;;1.30;1.30;;;3.70;99.90;;;;;;4991629;28;20728;-76
2021/03/08 06:40:01;;;;;;;1.20;1.20;;;3.80;99.90;;;;;;4991610;28;20673;-75
2021/03/08 06:42:28;;;;;;;1.20;1.20;;;3.70;99.90;;;;;;4991609;28;20232;-76
2021/03/08 06:44:54;;;;;;;1.10;1.10;;;3.80;99.90;;;;;;4991889;28;20204;-74
2021/03/08 06:47:22;;;;;;;1.30;1.30;;;3.80;99.90;;;;;;4991408;28;20208;-74
2021/03/08 06:49:49;;;;;;;1.40;1.40;;;4.00;99.90;;;;;;4991637;28;20207;-75
2021/03/08 06:52:18;;;;;;;1.30;1.30;;;4.00;99.90;;;;;;4991589;28;20228;-75
2021/03/08 06:55:00;;;;;;;1.30;1.30;;;3.80;99.90;;;;;;4993403;28;20211;-74
2021/03/08 06:57:29;;;;;;;1.20;1.20;;;4.00;99.90;;;;;;4995173;28;20267;-75
2021/03/08 06:59:58;;;;;;;1.20;1.20;;;4.10;99.90;;;;;;4994806;28;20204;-74
2021/03/08 07:02:36;;;;;;;1.10;1.10;;;4.10;99.90;;;;;;4994801;28;20247;-75
2021/03/08 07:05:04;;;;;;;1.23;1.23;;;4.00;99.90;;;;;;4995253;28;20742;-76
2021/03/08 07:07:47;;;;;;;1.30;1.30;;;4.10;99.90;;;;;;4994769;28;20204;-75
2021/03/08 07:10:15;;;;;;;1.10;1.10;;;4.20;99.90;;;;;;4994726;28;20200;-75
2021/03/08 07:12:48;;;;;;;1.20;1.20;;;4.20;99.90;;;;;;4994884;28;20208;-75
2021/03/08 07:15:16;;;;;;;1.10;1.10;;;4.10;99.90;;;;;;4994845;28;20211;-74
2021/03/08 07:17:43;;;;;;;1.20;1.20;;;4.40;99.90;;;;;;4994751;28;20262;-75
2021/03/08 07:20:13;;;;;;;1.10;1.10;;;4.20;99.90;;;;;;4994606;28;20215;-74
2021/03/08 07:22:43;;;;;;;1.20;1.20;;;4.30;99.90;;;;;;4994282;28;20677;-75
2021/03/08 07:25:21;;;;;;;1.30;1.30;;;4.40;99.90;;;;;;4994798;28;20635;-76
2021/03/08 07:27:50;;;;;;;1.17;1.17;;;4.40;99.90;;;;;;4994774;28;20224;-76
2021/03/08 07:30:20;;;;;;;1.20;1.20;;;4.20;99.90;;;;;;4994296;28;20204;-76
2021/03/08 07:32:59;;;;;;;1.30;1.30;;;4.10;99.90;;;;;;4994175;28;20219;-75
2021/03/08 07:35:34;;;;;;;1.20;1.20;;;4.10;99.90;;;;;;4994420;28;20227;-75
2021/03/08 07:38:02;;;;;;;1.20;1.20;;;4.10;99.90;;;;;;4994426;28;20204;-75
2021/03/08 07:40:29;;;;;;;1.30;1.30;;;3.90;99.90;;;;;;4994494;28;20200;-76
2021/03/08 07:42:56;;;;;;;1.40;1.40;;;4.00;99.90;;;;;;4994265;28;20204;-75
2021/03/08 07:45:39;;;;;;;1.43;1.43;;;4.50;99.90;;;;;;4994269;28;20364;-76
2021/03/08 07:48:11;;;;;;;1.23;1.23;;;4.40;99.90;;;;;;4994041;28;20227;-76
2021/03/08 07:50:39;;;;;;;1.40;1.40;;;4.80;99.90;;;;;;4994204;28;20227;-75
2021/03/08 07:53:29;;;;;;;1.10;1.10;;;4.90;99.90;;;;;;4994215;28;20254;-75
2021/03/08 07:55:57;;;;;;;1.00;1.00;;;5.00;99.90;;;;;;4994077;28;20243;-75
2021/03/08 07:58:26;;;;;;;1.30;1.30;;;5.20;99.90;;;;;;4994153;28;20231;-78
2021/03/08 08:00:53;;;;;;;1.00;1.00;;;5.30;99.90;;;;;;4994228;28;20224;-75
2021/03/08 08:03:21;;;;;;;1.10;1.10;;;5.50;99.90;;;;;;4993940;28;20251;-75
2021/03/08 08:05:54;;;;;;;1.20;1.20;;;5.30;99.90;;;;;;4993672;28;20286;-75
2021/03/08 08:08:22;;;;;;;1.10;1.10;;;5.40;99.90;;;;;;4993992;28;20298;-75
2021/03/08 08:10:53;;;;;;;1.10;1.10;;;5.50;99.90;;;;;;4993715;28;20650;-75
2021/03/08 08:13:24;;;;;;;1.10;1.10;;;5.40;99.90;;;;;;4993906;28;20567;-75
2021/03/08 08:15:52;;;;;;;1.20;1.20;;;5.10;99.90;;;;;;4994209;28;20242;-75
2021/03/08 08:18:21;;;;;;;1.23;1.23;;;5.30;99.90;;;;;;4993745;28;20231;-75
2021/03/08 08:20:51;;;;;;;1.37;1.37;;;;;;;;;;4993782;28;20232;-75
2021/03/08 08:23:20;;;;;;;1.10;1.10;;;;;;;;;;4993812;28;20212;-75
2021/03/08 08:25:47;;;;;;;1.23;1.23;;;5.90;99.90;;;;;;4993629;28;20207;-75
2021/03/08 08:28:18;;;;;;;1.10;1.10;;;5.80;99.90;;;;;;4993549;28;20235;-76
2021/03/08 08:30:55;;;;;;;1.20;1.20;;;5.80;99.90;;;;;;4993583;28;20705;-75
2021/03/08 08:33:29;;;;;;;1.20;1.20;;;5.80;99.90;;;;;;4993244;28;20207;-75
2021/03/08 08:36:15;;;;;;;1.20;1.20;;;5.90;99.90;;;;;;4993469;28;20203;-75
2021/03/08 08:38:43;;;;;;;1.10;1.10;;;6.10;99.90;;;;;;4993520;28;20203;-76
2021/03/08 08:41:19;;;;;;;1.10;1.10;;;5.90;99.90;;;;;;4993330;28;20281;-75
2021/03/08 08:43:47;;;;;;;0.80;0.80;;;6.50;99.90;;;;;;4988519;28;20854;-76
2021/03/08 08:46:26;;;;;;;1.20;1.20;;;6.50;99.90;;;;;;4985112;28;20258;-79
2021/03/08 08:49:05;;;;;;;1.00;1.00;;;6.70;99.90;;;;;;4994117;28;20230;-78
2021/03/08 08:51:53;;;;;;;1.10;1.10;;;6.70;99.90;;;;;;4993811;28;20238;-79
2021/03/08 08:54:53;;;;;;;1.17;1.17;;;6.90;99.90;;;;;;4991172;28;20282;-79
2021/03/08 08:57:21;;;;;;;1.07;1.07;;;6.90;99.90;;;;;;4993714;28;20203;-79
2021/03/08 09:00:16;;;;;;;1.27;1.27;;;6.90;99.90;;;;;;4993167;28;20615;-79
2021/03/08 09:02:44;;;;;;;1.10;1.10;;;6.90;99.90;;;;;;4993298;28;20211;-79
2021/03/08 09:05:42;;;;;;;1.00;1.00;;;6.80;99.90;;;;;;4993194;28;20736;-77
2021/03/08 09:08:23;;;;;;;1.20;1.20;;;6.70;99.90;;;;;;4992794;28;20224;-78
2021/03/08 09:10:50;;;;;;;1.10;1.10;;;6.30;99.90;;;;;;4992660;28;20283;-78
2021/03/08 09:13:17;;;;;;;1.10;1.10;;;6.40;99.90;;;;;;4992687;28;20204;-75
2021/03/08 09:15:45;;;;;;;1.23;1.23;;;6.20;99.90;;;;;;4992683;28;20258;-77
2021/03/08 09:18:12;;;;;;;1.20;1.20;;;6.10;99.90;;;;;;4991957;28;20713;-79
2021/03/08 09:20:42;;;;;;;1.40;1.40;;;6.00;99.90;;;;;;4993130;28;20232;-79
2021/03/08 09:23:21;;;;;;;1.30;1.30;;;5.90;99.90;;;;;;4992386;28;20231;-78
2021/03/08 09:25:56;;;;;;;1.30;1.30;;;6.00;99.90;;;;;;4992342;28;20203;-78
2021/03/08 09:28:22;;;;;;;1.13;1.13;;;6.00;99.90;;;;;;4992733;28;20620;-78
2021/03/08 09:30:50;;;;;;;1.10;1.10;;;5.90;99.90;;;;;;4992395;28;20224;-77
2021/03/08 09:33:18;;;;;;;1.13;1.13;;;5.70;99.90;;;;;;4992088;28;20673;-78
2021/03/08 09:35:48;;;;;;;1.07;1.07;;;5.90;99.90;;;;;;4992279;28;20565;-78
2021/03/08 09:38:16;;;;;;;1.30;1.30;;;5.80;99.90;;;;;;4992158;28;20196;-78
2021/03/08 09:40:46;;;;;;;1.33;1.33;;;5.70;99.90;;;;;;4992231;28;20649;-77
2021/03/08 09:43:24;;;;;;;1.20;1.20;;;5.80;99.70;;;;;;4992394;28;20212;-78
2021/03/08 09:46:00;;;;;;;1.07;1.07;;;5.80;99.90;;;;;;4992287;28;20207;-78
2021/03/08 09:48:28;;;;;;;1.10;1.10;;;6.10;98.60;;;;;;4992006;28;20219;-78
2021/03/08 09:51:03;;;;;;;1.00;1.00;;;6.30;98.80;;;;;;4992111;28;20710;-78
2021/03/08 09:53:33;;;;;;;1.10;1.10;;;6.60;97.80;;;;;;4992294;28;20599;-78
2021/03/08 09:56:05;;;;;;;1.00;1.00;;;6.90;97.90;;;;;;4992374;28;20199;-77
2021/03/08 09:58:34;;;;;;;1.10;1.10;;;7.00;97.00;;;;;;4992329;28;20203;-77
2021/03/08 10:01:16;;;;;;;1.00;1.00;;;7.10;96.40;;;;;;4991908;28;20651;-76
2021/03/08 10:03:48;;;;;;;1.10;1.10;;;7.30;95.60;;;;;;4991995;28;20208;-77
2021/03/08 10:06:22;;;;;;;1.00;1.00;;;7.50;94.60;;;;;;4992086;28;20204;-77
2021/03/08 10:08:49;;;;;;;0.90;0.90;;;7.40;93.40;;;;;;4992425;28;20227;-81
2021/03/08 10:11:24;;;;;;;1.20;1.20;;;7.50;93.60;;;;;;4992041;28;20236;-77
2021/03/08 10:13:51;;;;;;;1.10;1.10;;;7.80;99.70;;;;;;4992259;28;20215;-77
2021/03/08 10:16:24;;;;;;;0.87;0.87;;;8.00;92.80;;;;;;4991831;28;20735;-77
2021/03/08 10:18:52;;;;;;;1.00;1.00;;;8.30;94.50;;;;;;4991871;28;20292;-76
2021/03/08 10:21:20;;;;;;;1.10;1.10;;;8.40;90.50;;;;;;4991738;28;20228;-76
2021/03/08 10:23:47;;;;;;;0.80;0.80;;;8.30;89.80;;;;;;4992000;28;20204;-77
2021/03/08 10:26:15;;;;;;;1.03;1.03;;;8.40;89.80;;;;;;4991782;28;20736;-77
2021/03/08 10:28:43;;;;;;;1.00;1.00;;;8.00;81.90;;;;;;4994188;28;20285;-76
2021/03/08 10:31:18;;;;;;;0.93;0.93;;;7.80;80.50;;;;;;4995672;28;20224;-76
2021/03/08 10:33:50;;;;;;;1.00;1.00;;;7.90;82.80;;;;;;4995606;28;20207;-77
2021/03/08 10:36:18;;;;;;;0.90;0.90;;;8.10;84.20;;;;;;4995588;28;20625;-77
2021/03/08 10:38:46;;;;;;;1.00;1.00;;;8.10;82.50;;;;;;4995423;28;20282;-77
2021/03/08 10:41:13;;;;;;;1.00;1.00;;;8.10;78.60;;;;;;4995333;28;20856;-77
2021/03/08 10:43:43;;;;;;;1.00;1.00;;;8.00;77.70;;;;;;4995379;28;20230;-77
2021/03/08 10:46:11;;;;;;;1.17;1.17;;;7.80;78.60;;;;;;4995621;28;20207;-77
2021/03/08 10:48:55;;;;;;;1.00;1.00;;;7.50;79.20;;;;;;4995041;28;20216;-77
2021/03/08 10:51:22;;;;;;;1.10;1.10;;;7.40;83.50;;;;;;4995150;28;20227;-78
2021/03/08 10:53:56;;;;;;;1.07;1.07;;;7.40;84.30;;;;;;4995531;28;20699;-77
2021/03/08 10:56:25;;;;;;;0.90;0.90;;;7.10;83.30;;;;;;4995839;28;20237;-78
2021/03/08 10:58:52;;;;;;;1.10;1.10;;;7.10;82.40;;;;;;4995970;28;20210;-77
2021/03/08 11:01:19;;;;;;;1.00;1.00;;;7.30;83.90;;;;;;4995953;28;20228;-77
2021/03/08 11:03:47;;;;;;;1.10;1.10;;;7.40;84.80;;;;;;4996239;28;20704;-76
2021/03/08 11:06:16;;;;;;;1.00;1.00;;;7.20;76.30;;;;;;4995227;28;20665;-75
2021/03/08 11:08:55;;;;;;;1.00;1.00;;;7.10;76.40;;;;;;4994990;28;20224;-76
2021/03/08 11:11:24;;;;;;;1.10;1.10;;;6.80;74.90;;;;;;4994937;28;20231;-75
2021/03/08 11:13:51;;;;;;;1.20;1.20;;;7.00;78.10;;;;;;4995279;28;20200;-77
2021/03/08 11:16:18;;;;;;;1.13;1.13;;;7.10;76.90;;;;;;4994805;28;20227;-76
2021/03/08 11:18:45;;;;;;;1.00;1.00;;;7.20;75.00;;;;;;4997515;28;20262;-77
2021/03/08 11:21:26;;;;;;;0.90;0.90;;;7.20;75.00;;;;;;4996922;28;20723;-76
2021/03/08 11:23:53;;;;;;;1.10;1.10;;;7.50;73.70;;;;;;4996058;28;20210;-76
2021/03/08 11:26:21;;;;;;;1.30;1.30;;;7.80;75.10;;;;;;4993298;28;20744;-77
2021/03/08 11:28:48;;;;;;;0.90;0.90;;;8.10;74.30;;;;;;4989471;28;20700;-76
2021/03/08 11:31:21;;;;;;;0.90;0.90;;;8.30;74.40;;;;;;4996371;28;20270;-75
2021/03/08 11:33:49;;;;;;;1.00;1.00;;;8.30;76.10;;;;;;4997761;28;20287;-77
2021/03/08 11:36:32;;;;;;;1.10;1.10;;;8.30;77.10;;;;;;4997943;28;20669;-78
2021/03/08 11:39:03;;;;;;;0.90;0.90;;;8.20;76.70;;;;;;4996646;28;20203;-78
2021/03/08 11:41:31;;;;;;;1.00;1.00;;;8.20;76.10;;;;;;4996763;28;20228;-79
2021/03/08 11:43:58;;;;;;;1.20;1.20;;;7.90;76.00;;;;;;4997137;28;20259;-78
2021/03/08 11:46:28;;;;;;;1.00;1.00;;;7.70;75.40;;;;;;4997562;28;20269;-78
2021/03/08 11:49:04;;;;;;;1.10;1.10;;;7.40;73.10;;;;;;4997985;28;20278;-80
2021/03/08 11:51:31;;;;;;;1.10;1.10;;;7.20;74.00;;;;;;4997550;28;20223;-79
2021/03/08 11:53:58;;;;;;;1.30;1.30;;;7.30;74.70;;;;;;4999356;28;20215;-79
2021/03/08 11:56:26;;;;;;;1.00;1.00;;;7.50;73.20;;;;;;4999633;28;20216;-78
2021/03/08 11:58:54;;;;;;;1.20;1.20;;;7.50;73.50;;;;;;4997931;28;20196;-79
2021/03/08 12:01:21;;;;;;;1.10;1.10;;;7.60;66.20;;;;;;4999456;28;20220;-80
2021/03/08 12:03:48;;;;;;;1.13;1.13;;;7.70;69.50;;;;;;4997305;28;20227;-77
2021/03/08 12:06:15;;;;;;;0.90;0.90;;;7.80;67.30;;;;;;4985517;28;20208;-77
2021/03/08 12:08:44;;;;;;;1.00;1.00;;;8.00;70.10;;;;;;4994553;28;20212;-77
2021/03/08 12:11:11;;;;;;;0.80;0.80;;;8.30;70.30;;;;;;4994070;28;20235;-77
2021/03/08 12:13:38;;;;;;;0.90;0.90;;;8.50;68.80;;;;;;4998459;28;20211;-80
2021/03/08 12:16:05;;;;;;;1.10;1.10;;;8.60;68.40;;;;;;4998925;28;20250;-78
2021/03/08 12:18:32;;;;;;;0.80;0.80;;;8.50;68.20;;;;;;4996853;28;20200;-79
2021/03/08 12:21:00;;;;;;;1.00;1.00;;;8.50;65.60;;;;;;4997246;28;20247;-80
2021/03/08 12:23:27;;;;;;;0.90;0.90;;;8.40;66.50;;;;;;4996774;28;20204;-79
2021/03/08 12:25:55;;;;;;;1.17;1.17;;;8.10;97.10;;;;;;4997010;28;20558;-80
2021/03/08 12:28:22;;;;;;;1.00;1.00;;;8.10;64.70;;;;;;4997593;28;20258;-79
2021/03/08 12:30:48;;;;;;;1.00;1.00;;;7.90;67.40;;;;;;4996798;28;20247;-78
2021/03/08 12:33:15;;;;;;;1.20;1.20;;;7.80;66.40;;;;;;4996306;28;20208;-78
2021/03/08 12:35:43;;;;;;;0.90;0.90;;;7.70;67.20;;;;;;4996185;28;20231;-79
2021/03/08 12:38:10;;;;;;;0.90;0.90;;;7.40;68.00;;;;;;4996168;28;20584;-80
2021/03/08 12:40:37;;;;;;;1.13;1.13;;;7.20;68.80;;;;;;4996370;28;20251;-80
2021/03/08 12:43:04;;;;;;;1.20;1.20;;;7.10;69.20;;;;;;4999898;28;20627;-79
2021/03/08 12:45:31;;;;;;;0.97;0.97;;;7.10;70.00;;;;;;4997700;28;20235;-79
2021/03/08 12:47:58;;;;;;;1.00;1.00;;;7.10;70.40;;;;;;4996798;28;20231;-80
2021/03/08 12:50:25;;;;;;;1.10;1.10;;;7.30;99.90;;;;;;4996673;28;20315;-79
2021/03/08 12:52:52;;;;;;;1.13;1.13;;;7.30;70.80;;;;;;4995443;28;20204;-80
2021/03/08 12:55:19;;;;;;;0.90;0.90;;;7.60;68.50;;;;;;4995936;28;20227;-79
2021/03/08 12:57:46;;;;;;;1.10;1.10;;;7.80;66.70;;;;;;4996240;28;20270;-80
2021/03/08 13:00:15;;;;;;;1.00;1.00;;;7.60;96.70;;;;;;4995476;28;20477;-80
2021/03/08 13:02:42;;;;;;;1.00;1.00;;;7.50;60.60;;;;;;4995384;28;20211;-80
2021/03/08 13:05:10;;;;;;;1.07;1.07;;;7.50;63.20;;;;;;4996000;28;20488;-81
2021/03/08 13:07:37;;;;;;;1.20;1.20;;;7.40;65.10;;;;;;4996834;28;20203;-80
2021/03/08 13:10:06;;;;;;;1.10;1.10;;;7.20;64.40;;;;;;4995440;28;20228;-79
2021/03/08 13:12:33;;;;;;;1.00;1.00;;;7.20;67.80;;;;;;4995511;28;20674;-81
2021/03/08 13:14:59;;;;;;;1.00;1.00;;;7.20;64.90;;;;;;4996555;28;20843;-78
2021/03/08 13:17:36;;;;;;;1.20;1.20;;;7.20;60.60;;;;;;4995708;28;20299;-79
2021/03/08 13:20:05;;;;;;;1.10;1.10;;;7.20;61.10;;;;;;4995275;28;20195;-79
2021/03/08 13:22:32;;;;;;;1.00;1.00;;;7.40;60.20;;;;;;4995516;28;20231;-80
2021/03/08 13:24:59;;;;;;;0.90;0.90;;;7.50;61.80;;;;;;4994997;28;20752;-80
2021/03/08 13:27:26;;;;;;;1.00;1.00;;;7.70;61.70;;;;;;4995138;28;20212;-79
2021/03/08 13:29:53;;;;;;;0.90;0.90;;;7.60;62.40;;;;;;4994636;28;20227;-79
2021/03/08 13:32:23;;;;;;;1.10;1.10;;;7.80;64.10;;;;;;4997920;28;20256;-82
2021/03/08 13:34:51;;;;;;;1.17;1.17;;;8.10;64.00;;;;;;4995711;28;20204;-80
2021/03/08 13:37:18;;;;;;;0.90;0.90;;;8.30;64.50;;;;;;4994103;28;20199;-79
2021/03/08 13:39:45;;;;;;;1.10;1.10;;;8.20;66.30;;;;;;4994396;28;20672;-81
2021/03/08 13:42:12;;;;;;;0.93;0.93;;;8.00;66.40;;;;;;4990940;28;20256;-80
2021/03/08 13:44:38;;;;;;;1.07;1.07;;;8.00;65.60;;;;;;4982926;28;20200;-79
2021/03/08 13:47:05;;;;;;;1.00;1.00;;;8.00;64.40;;;;;;4984556;28;20200;-80
2021/03/08 13:49:32;;;;;;;1.20;1.20;;;7.90;64.10;;;;;;4984486;28;20216;-79
2021/03/08 13:52:00;;;;;;;0.90;0.90;;;7.80;64.40;;;;;;4985209;28;20706;-79
2021/03/08 13:54:27;;;;;;;1.07;1.07;;;7.80;64.30;;;;;;4983559;28;20200;-78
2021/03/08 13:56:54;;;;;;;1.00;1.00;;;7.70;62.70;;;;;;4983316;28;20215;-76
2021/03/08 13:59:21;;;;;;;1.10;1.10;;;7.80;63.30;;;;;;4983597;28;20188;-76
2021/03/08 14:01:48;;;;;;;0.83;0.83;;;7.60;63.00;;;;;;4983636;28;20220;-77
2021/03/08 14:04:18;;;;;;;1.10;1.10;;;7.70;62.40;;;;;;4987282;28;20654;-77
2021/03/08 14:06:45;;;;;;;0.97;0.97;;;7.80;63.10;;;;;;4997841;28;20677;-77
2021/03/08 14:09:12;;;;;;;1.17;1.17;;;7.80;60.70;;;;;;4997969;28;20278;-76
2021/03/08 14:11:39;;;;;;;1.00;1.00;;;7.60;61.40;;;;;;4997420;28;20246;-77
2021/03/08 14:14:07;;;;;;;1.00;1.00;;;7.60;62.10;;;;;;4997637;28;20204;-78
2021/03/08 14:16:34;;;;;;;1.20;1.20;;;7.50;63.60;;;;;;4998040;28;20200;-76
2021/03/08 14:19:01;;;;;;;1.20;1.20;;;7.40;63.70;;;;;;4998307;28;20208;-79
2021/03/08 14:21:28;;;;;;;1.07;1.07;;;7.30;64.10;;;;;;4996657;28;20228;-77
2021/03/08 14:23:55;;;;;;;1.30;1.30;;;7.30;64.20;;;;;;4997256;28;20642;-79
2021/03/08 14:26:22;;;;;;;1.10;1.10;;;7.30;65.00;;;;;;4996572;28;20255;-78
2021/03/08 14:28:55;;;;;;;1.13;1.13;;;7.50;63.70;;;;;;4996567;28;20282;-78
2021/03/08 14:31:22;;;;;;;1.03;1.03;;;7.60;64.40;;;;;;4996456;28;20235;-78
2021/03/08 14:33:49;;;;;;;1.07;1.07;;;7.80;63.70;;;;;;4995835;28;20239;-79
2021/03/08 14:36:17;;;;;;;1.20;1.20;;;7.90;61.90;;;;;;4996239;28;20328;-79
2021/03/08 14:38:45;;;;;;;1.00;1.00;;;7.90;60.00;;;;;;4998962;28;20203;-80
2021/03/08 14:41:12;;;;;;;0.90;0.90;;;8.10;62.10;;;;;;4996058;28;20231;-78
2021/03/08 14:43:40;;;;;;;1.00;1.00;;;8.10;61.80;;;;;;4995795;28;20643;-79
2021/03/08 14:46:13;;;;;;;1.03;1.03;;;8.20;61.40;;;;;;4996016;28;20214;-78
2021/03/08 14:48:47;;;;;;;1.00;1.00;;;8.20;60.30;;;;;;4995959;28;20238;-78
2021/03/08 14:51:15;;;;;;;0.80;0.80;;;8.20;60.30;;;;;;4996059;28;20282;-77
2021/03/08 14:53:43;;;;;;;1.00;1.00;;;8.30;61.50;;;;;;4995800;28;20203;-77
2021/03/08 14:56:09;;;;;;;1.00;1.00;;;8.30;58.60;;;;;;4995018;28;20734;-79
2021/03/08 14:58:36;;;;;;;0.90;0.90;;;8.30;57.20;;;;;;4995656;28;20247;-76
2021/03/08 15:01:04;;;;;;;1.00;1.00;;;8.20;58.60;;;;;;4985624;28;20232;-78
2021/03/08 15:03:32;;;;;;;0.90;0.90;;;8.00;59.70;;;;;;4990858;28;20227;-78
2021/03/08 15:05:59;;;;;;;0.90;0.90;;;7.90;58.60;;;;;;4976153;28;20204;-78
2021/03/08 15:08:45;;;;;;;1.17;1.17;;;7.80;59.60;;;;;;4976375;28;20268;-80
2021/03/08 15:11:13;;;;;;;1.00;1.00;;;7.70;59.80;;;;;;4959230;28;512512;-79
2021/03/08 15:13:39;;;;;;;1.00;1.00;;;7.50;60.20;;;;;;4976990;28;20204;-80
2021/03/08 15:16:07;;;;;;;0.90;0.90;;;7.60;60.60;;;;;;4976860;28;20737;-82
2021/03/08 15:18:34;;;;;;;1.00;1.00;;;7.50;60.50;;;;;;4978310;28;20204;-82
2021/03/08 15:21:02;;;;;;;1.10;1.10;;;7.70;60.80;;;;;;4978403;28;20220;-82
2021/03/08 15:23:29;;;;;;;0.97;0.97;;;7.80;61.60;;;;;;4978418;28;20231;-80
2021/03/08 15:25:56;;;;;;;1.00;1.00;;;7.80;61.60;;;;;;4977806;28;20200;-82
2021/03/08 15:28:22;;;;;;;0.97;0.97;;;7.80;58.50;;;;;;4978591;28;20209;-80
2021/03/08 15:30:49;;;;;;;1.10;1.10;;;7.80;59.50;;;;;;4978422;28;20228;-82
2021/03/08 15:33:17;;;;;;;1.00;1.00;;;7.50;58.70;;;;;;4978252;28;20216;-77
2021/03/08 15:35:44;;;;;;;1.10;1.10;;;7.50;63.10;;;;;;4978630;28;20204;-81
2021/03/08 15:38:11;;;;;;;0.90;0.90;;;7.60;61.80;;;;;;4976935;28;20485;-81
2021/03/08 15:40:38;;;;;;;0.90;0.90;;;7.70;61.40;;;;;;4977208;28;20697;-82
2021/03/08 15:43:05;;;;;;;1.00;1.00;;;7.90;62.00;;;;;;4977554;28;20247;-81
2021/03/08 15:45:44;;;;;;;1.07;1.07;;;7.90;61.50;;;;;;4977060;28;20208;-80
2021/03/08 15:48:11;;;;;;;1.00;1.00;;;7.70;62.00;;;;;;4977897;28;20425;-82
2021/03/08 15:50:40;;;;;;;1.00;1.00;;;7.60;62.30;;;;;;4978403;28;20224;-82
2021/03/08 15:53:07;;;;;;;0.90;0.90;;;7.70;62.60;;;;;;4977359;28;20205;-81
2021/03/08 15:55:34;;;;;;;0.97;0.97;;;7.70;61.30;;;;;;4977674;28;20200;-81
2021/03/08 15:58:01;;;;;;;0.97;0.97;;;7.60;60.50;;;;;;4978059;28;20209;-82
2021/03/08 16:00:28;;;;;;;0.93;0.93;;;7.80;96.00;;;;;;4976614;28;20337;-82
2021/03/08 16:02:55;;;;;;;1.00;1.00;;;7.70;60.70;;;;;;4975452;28;20209;-82
2021/03/08 16:05:22;;;;;;;1.00;1.00;;;7.70;59.70;;;;;;4976060;28;20694;-82
2021/03/08 16:07:50;;;;;;;0.90;0.90;;;7.80;60.00;;;;;;4979237;28;20208;-83
2021/03/08 16:10:17;;;;;;;1.00;1.00;;;7.40;95.60;;;;;;4985829;28;20727;-80
2021/03/08 16:12:44;;;;;;;1.10;1.10;;;7.40;59.40;;;;;;4985502;28;20325;-80
2021/03/08 16:15:12;;;;;;;1.00;1.00;;;7.30;59.50;;;;;;4980874;28;20251;-81
2021/03/08 16:17:59;;;;;;;1.10;1.10;;;7.30;59.40;;;;;;4976782;28;20276;-80
2021/03/08 16:20:26;;;;;;;1.00;1.00;;;7.00;59.30;;;;;;4977367;28;20212;-79
2021/03/08 16:22:54;;;;;;;1.10;1.10;;;;;;;;;;4988511;28;20197;-80
2021/03/08 16:25:21;;;;;;;1.20;1.20;;;7.00;92.00;;;;;;4986395;28;20236;-80
2021/03/08 16:27:48;;;;;;;0.90;0.90;;;6.80;93.40;;;;;;4993438;28;20274;-80
2021/03/08 16:30:16;;;;;;;1.10;1.10;;;7.00;93.50;;;;;;4999338;28;20282;-81
2021/03/08 16:32:43;;;;;;;0.93;0.93;;;7.10;94.60;;;;;;4998142;28;20203;-80
2021/03/08 16:35:11;;;;;;;1.10;1.10;;;7.10;93.50;;;;;;4995272;28;20727;-79
2021/03/08 16:37:38;;;;;;;1.10;1.10;;;7.30;93.90;;;;;;4995239;28;20539;-78
2021/03/08 16:40:09;;;;;;;1.07;1.07;;;6.90;92.60;;;;;;4994719;28;20236;-77
2021/03/08 16:42:37;;;;;;;1.00;1.00;;;6.80;90.60;;;;;;4994765;28;20231;-79
2021/03/08 16:45:06;;;;;;;1.00;1.00;;;6.90;90.40;;;;;;4995880;28;20208;-78
2021/03/08 16:47:33;;;;;;;1.00;1.00;;;6.70;91.40;;;;;;4994487;28;20204;-79
2021/03/08 16:50:01;;;;;;;1.00;1.00;;;6.60;79.90;;;;;;4993854;28;20223;-78
2021/03/08 16:52:28;;;;;;;1.10;1.10;;;6.40;59.70;;;;;;4993319;28;20224;-77
2021/03/08 16:54:56;;;;;;;1.10;1.10;;;6.40;61.80;;;;;;4993488;28;20287;-75
2021/03/08 16:57:27;;;;;;;1.30;1.30;;;6.40;61.70;;;;;;4993481;28;20200;-75
2021/03/08 16:59:54;;;;;;;1.10;1.10;;;6.40;62.30;;;;;;4993206;28;20661;-74
2021/03/08 17:02:21;;;;;;;1.00;1.00;;;6.40;62.60;;;;;;4993045;28;20247;-79
2021/03/08 17:04:49;;;;;;;1.27;1.27;;;6.20;60.30;;;;;;4993356;28;20204;-74
2021/03/08 17:07:16;;;;;;;1.07;1.07;;;6.20;62.40;;;;;;4993029;28;20243;-76
2021/03/08 17:09:42;;;;;;;0.90;0.90;;;6.30;62.00;;;;;;4993009;28;20219;-73
2021/03/08 17:12:16;;;;;;;1.10;1.10;;;6.20;62.40;;;;;;4992779;28;20314;-74
2021/03/08 17:14:45;;;;;;;1.10;1.10;;;6.20;61.90;;;;;;4992823;28;20258;-73
2021/03/08 17:17:13;;;;;;;1.00;1.00;;;6.20;64.90;;;;;;4993067;28;20339;-73
2021/03/08 17:19:42;;;;;;;1.00;1.00;;;6.10;73.30;;;;;;4992874;28;20625;-73
2021/03/08 17:22:09;;;;;;;1.13;1.13;;;5.90;61.40;;;;;;4993242;28;20228;-73
2021/03/08 17:24:35;;;;;;;1.03;1.03;;;5.80;63.10;;;;;;4993297;28;20348;-73
2021/03/08 17:27:06;;;;;;;1.13;1.13;;;5.80;61.90;;;;;;4998852;28;20677;-77
2021/03/08 17:29:34;;;;;;;1.20;1.20;;;5.80;62.20;;;;;;5008331;28;20219;-81
2021/03/08 17:32:02;;;;;;;1.00;1.00;;;5.90;63.20;;;;;;5004614;28;20270;-80
2021/03/08 17:34:30;;;;;;;1.20;1.20;;;5.90;62.80;;;;;;4988179;28;20207;-78
2021/03/08 17:36:57;;;;;;;1.10;1.10;;;5.80;64.10;;;;;;4995898;28;20208;-78
2021/03/08 17:39:24;;;;;;;1.13;1.13;;;5.80;65.10;;;;;;4975803;28;20204;-79
2021/03/08 17:41:51;;;;;;;1.37;1.37;;;5.80;65.30;;;;;;4978239;28;20228;-78
2021/03/08 17:44:17;;;;;;;1.00;1.00;;;5.80;64.30;;;;;;4982126;28;20196;-80
2021/03/08 17:46:44;;;;;;;1.10;1.10;;;5.80;64.80;;;;;;4990030;28;20219;-77
2021/03/08 17:49:12;;;;;;;1.30;1.30;;;5.70;63.40;;;;;;4984230;28;20625;-77
2021/03/08 17:51:41;;;;;;;1.20;1.20;;;5.70;66.70;;;;;;4994741;28;20660;-77
2021/03/08 17:54:11;;;;;;;1.17;1.17;;;5.50;68.90;;;;;;4996955;28;20211;-79
2021/03/08 17:56:38;;;;;;;0.93;0.93;;;5.60;70.30;;;;;;4997331;28;20204;-78
2021/03/08 17:59:25;;;;;;;1.17;1.17;;;6.00;84.40;;;;;;4993225;28;20319;-75
2021/03/08 18:01:52;;;;;;;1.10;1.10;;;5.70;87.20;;;;;;4993709;28;20599;-78
2021/03/08 18:04:20;;;;;;;1.10;1.10;;;5.50;87.50;;;;;;4993316;28;20676;-77
2021/03/08 18:06:46;;;;;;;1.10;1.10;;;5.40;90.20;;;;;;4994621;28;20262;-78
2021/03/08 18:09:13;;;;;;;1.10;1.10;;;5.40;81.90;;;;;;4994558;28;20250;-78
2021/03/08 18:11:40;;;;;;;1.30;1.30;;;5.30;94.90;;;;;;4990382;28;20227;-78
2021/03/08 18:14:08;;;;;;;1.10;1.10;;;;;;;;;;4986297;28;20209;-77
2021/03/08 18:16:35;;;;;;;1.20;1.20;;;5.20;99.90;;;;;;4993937;28;20676;-80
2021/03/08 18:19:02;;;;;;;1.17;1.17;;;5.10;99.90;;;;;;4993139;28;20696;-78
2021/03/08 18:21:30;;;;;;;1.20;1.20;;;5.20;77.20;;;;;;4993721;28;20260;-78
2021/03/08 18:23:57;;;;;;;1.17;1.17;;;5.10;76.90;;;;;;4993542;28;20608;-77